sensor_id;sensor_type;location;lat;lon;timestamp;P1;durP1;ratioP1;P2;durP2;ratioP2
65033;SDS011;51601;51.356;12.458;2023-01-26T00:01:05;26.10;;;11.27;;
65033;SDS011;51601;51.356;12.458;2023-01-26T00:05:50;29.83;;;12.25;;
65033;SDS011;51601;51.356;12.458;2023-01-26T00:10:34;27.70;;;11.55;;
65033;SDS011;51601;51.356;12.458;2023-01-26T00:15:19;27.97;;;12.27;;
65033;SDS011;51601;51.356;12.458;2023-01-26T00:20:05;26.98;;;11.70;;
65033;SDS011;51601;51.356;12.458;2023-01-26T00:24:50;30.73;;;13.07;;
65033;SDS011;51601;51.356;12.458;2023-01-26T00:29:34;29.27;;;12.20;;
65033;SDS011;51601;51.356;12.458;2023-01-26T00:34:18;27.08;;;11.50;;
65033;SDS011;51601;51.356;12.458;2023-01-26T00:39:04;31.75;;;13.45;;
65033;SDS011;51601;51.356;12.458;2023-01-26T00:43:49;29.73;;;12.80;;
65033;SDS011;51601;51.356;12.458;2023-01-26T00:48:34;28.47;;;11.60;;
65033;SDS011;51601;51.356;12.458;2023-01-26T00:53:18;29.48;;;12.88;;
65033;SDS011;51601;51.356;12.458;2023-01-26T00:58:04;28.60;;;12.50;;
65033;SDS011;51601;51.356;12.458;2023-01-26T01:02:49;34.70;;;14.03;;
65033;SDS011;51601;51.356;12.458;2023-01-26T01:07:33;34.15;;;13.65;;
65033;SDS011;51601;51.356;12.458;2023-01-26T01:12:17;34.53;;;13.63;;
65033;SDS011;51601;51.356;12.458;2023-01-26T01:17:03;38.10;;;14.43;;
65033;SDS011;51601;51.356;12.458;2023-01-26T01:21:49;38.35;;;15.25;;
65033;SDS011;51601;51.356;12.458;2023-01-26T01:26:33;39.63;;;14.75;;
65033;SDS011;51601;51.356;12.458;2023-01-26T01:31:17;38.67;;;13.65;;
65033;SDS011;51601;51.356;12.458;2023-01-26T01:36:04;34.47;;;12.13;;
65033;SDS011;51601;51.356;12.458;2023-01-26T01:40:50;41.58;;;14.38;;
65033;SDS011;51601;51.356;12.458;2023-01-26T01:45:42;39.55;;;14.02;;
65033;SDS011;51601;51.356;12.458;2023-01-26T01:50:27;38.43;;;13.63;;
65033;SDS011;51601;51.356;12.458;2023-01-26T01:55:18;36.45;;;12.80;;
65033;SDS011;51601;51.356;12.458;2023-01-26T02:00:04;35.50;;;13.00;;
65033;SDS011;51601;51.356;12.458;2023-01-26T02:04:54;39.77;;;13.97;;
65033;SDS011;51601;51.356;12.458;2023-01-26T02:09:46;40.05;;;12.95;;
65033;SDS011;51601;51.356;12.458;2023-01-26T02:14:51;42.92;;;13.45;;
65033;SDS011;51601;51.356;12.458;2023-01-26T02:19:38;35.08;;;12.60;;
65033;SDS011;51601;51.356;12.458;2023-01-26T02:24:32;39.20;;;13.03;;
65033;SDS011;51601;51.356;12.458;2023-01-26T02:29:21;35.75;;;12.82;;
65033;SDS011;51601;51.356;12.458;2023-01-26T02:34:06;42.55;;;12.90;;
65033;SDS011;51601;51.356;12.458;2023-01-26T02:38:54;38.60;;;12.37;;
65033;SDS011;51601;51.356;12.458;2023-01-26T02:43:47;37.63;;;12.48;;
65033;SDS011;51601;51.356;12.458;2023-01-26T02:48:33;38.22;;;13.20;;
65033;SDS011;51601;51.356;12.458;2023-01-26T02:53:36;39.70;;;13.97;;
65033;SDS011;51601;51.356;12.458;2023-01-26T02:58:21;37.10;;;11.90;;
65033;SDS011;51601;51.356;12.458;2023-01-26T03:03:06;33.63;;;12.40;;
65033;SDS011;51601;51.356;12.458;2023-01-26T03:07:56;36.70;;;13.50;;
65033;SDS011;51601;51.356;12.458;2023-01-26T03:12:46;33.93;;;11.97;;
65033;SDS011;51601;51.356;12.458;2023-01-26T03:17:32;38.20;;;12.70;;
65033;SDS011;51601;51.356;12.458;2023-01-26T03:22:18;32.25;;;10.80;;
65033;SDS011;51601;51.356;12.458;2023-01-26T03:27:21;31.67;;;12.10;;
65033;SDS011;51601;51.356;12.458;2023-01-26T03:32:16;36.13;;;13.32;;
65033;SDS011;51601;51.356;12.458;2023-01-26T03:37:01;33.60;;;11.20;;
65033;SDS011;51601;51.356;12.458;2023-01-26T03:41:55;28.60;;;9.90;;
65033;SDS011;51601;51.356;12.458;2023-01-26T03:46:58;28.00;;;8.73;;
65033;SDS011;51601;51.356;12.458;2023-01-26T03:52:00;29.58;;;9.32;;
65033;SDS011;51601;51.356;12.458;2023-01-26T03:57:03;27.08;;;8.82;;
65033;SDS011;51601;51.356;12.458;2023-01-26T04:01:48;25.27;;;8.17;;
65033;SDS011;51601;51.356;12.458;2023-01-26T04:06:52;27.90;;;8.13;;
65033;SDS011;51601;51.356;12.458;2023-01-26T04:12:00;24.83;;;7.97;;
65033;SDS011;51601;51.356;12.458;2023-01-26T04:16:44;23.40;;;8.13;;
65033;SDS011;51601;51.356;12.458;2023-01-26T04:21:46;23.02;;;8.20;;
65033;SDS011;51601;51.356;12.458;2023-01-26T04:26:36;25.88;;;8.20;;
65033;SDS011;51601;51.356;12.458;2023-01-26T04:31:24;25.43;;;7.53;;
65033;SDS011;51601;51.356;12.458;2023-01-26T04:36:08;23.17;;;7.15;;
65033;SDS011;51601;51.356;12.458;2023-01-26T04:40:58;20.80;;;7.35;;
65033;SDS011;51601;51.356;12.458;2023-01-26T04:45:47;20.80;;;7.18;;
65033;SDS011;51601;51.356;12.458;2023-01-26T04:50:41;20.60;;;6.63;;
65033;SDS011;51601;51.356;12.458;2023-01-26T04:55:25;21.63;;;7.18;;
65033;SDS011;51601;51.356;12.458;2023-01-26T05:00:10;25.55;;;7.38;;
65033;SDS011;51601;51.356;12.458;2023-01-26T05:04:57;22.57;;;8.17;;
65033;SDS011;51601;51.356;12.458;2023-01-26T05:09:44;26.08;;;8.75;;
65033;SDS011;51601;51.356;12.458;2023-01-26T05:14:56;24.23;;;8.10;;
65033;SDS011;51601;51.356;12.458;2023-01-26T05:20:09;21.07;;;7.33;;
65033;SDS011;51601;51.356;12.458;2023-01-26T05:25:08;23.55;;;7.30;;
65033;SDS011;51601;51.356;12.458;2023-01-26T05:30:03;24.15;;;7.05;;
65033;SDS011;51601;51.356;12.458;2023-01-26T05:34:49;20.52;;;6.78;;
65033;SDS011;51601;51.356;12.458;2023-01-26T05:39:36;22.07;;;6.57;;
65033;SDS011;51601;51.356;12.458;2023-01-26T05:44:22;21.90;;;7.03;;
65033;SDS011;51601;51.356;12.458;2023-01-26T05:49:16;20.70;;;6.25;;
65033;SDS011;51601;51.356;12.458;2023-01-26T05:54:01;24.27;;;7.87;;
65033;SDS011;51601;51.356;12.458;2023-01-26T05:58:46;23.30;;;7.20;;
65033;SDS011;51601;51.356;12.458;2023-01-26T06:03:31;23.90;;;7.63;;
65033;SDS011;51601;51.356;12.458;2023-01-26T06:08:15;22.13;;;7.43;;
65033;SDS011;51601;51.356;12.458;2023-01-26T06:13:11;25.27;;;8.35;;
65033;SDS011;51601;51.356;12.458;2023-01-26T06:18:08;22.00;;;8.02;;
65033;SDS011;51601;51.356;12.458;2023-01-26T06:22:59;21.23;;;7.25;;
65033;SDS011;51601;51.356;12.458;2023-01-26T06:27:46;25.43;;;8.73;;
65033;SDS011;51601;51.356;12.458;2023-01-26T06:32:39;23.02;;;7.80;;
65033;SDS011;51601;51.356;12.458;2023-01-26T06:37:24;25.60;;;8.48;;
65033;SDS011;51601;51.356;12.458;2023-01-26T06:42:09;24.57;;;8.63;;
65033;SDS011;51601;51.356;12.458;2023-01-26T06:46:54;23.95;;;8.75;;
65033;SDS011;51601;51.356;12.458;2023-01-26T06:51:46;21.15;;;7.95;;
65033;SDS011;51601;51.356;12.458;2023-01-26T06:56:50;22.47;;;8.73;;
65033;SDS011;51601;51.356;12.458;2023-01-26T07:01:43;24.63;;;8.65;;
65033;SDS011;51601;51.356;12.458;2023-01-26T07:06:30;21.60;;;9.05;;
65033;SDS011;51601;51.356;12.458;2023-01-26T07:11:14;24.65;;;8.65;;
65033;SDS011;51601;51.356;12.458;2023-01-26T07:16:00;24.57;;;8.77;;
65033;SDS011;51601;51.356;12.458;2023-01-26T07:20:45;28.83;;;9.00;;
65033;SDS011;51601;51.356;12.458;2023-01-26T07:25:30;22.52;;;8.57;;
65033;SDS011;51601;51.356;12.458;2023-01-26T07:30:14;24.23;;;8.00;;
65033;SDS011;51601;51.356;12.458;2023-01-26T07:35:01;14.20;;;5.25;;
65033;SDS011;51601;51.356;12.458;2023-01-26T07:39:45;19.92;;;7.13;;
65033;SDS011;51601;51.356;12.458;2023-01-26T07:44:30;18.30;;;6.23;;
65033;SDS011;51601;51.356;12.458;2023-01-26T07:49:15;18.02;;;6.35;;
65033;SDS011;51601;51.356;12.458;2023-01-26T07:54:03;18.13;;;6.18;;
65033;SDS011;51601;51.356;12.458;2023-01-26T07:58:49;11.35;;;4.60;;
65033;SDS011;51601;51.356;12.458;2023-01-26T08:03:34;19.00;;;5.17;;
65033;SDS011;51601;51.356;12.458;2023-01-26T08:08:19;16.20;;;5.82;;
65033;SDS011;51601;51.356;12.458;2023-01-26T08:13:04;15.75;;;5.70;;
65033;SDS011;51601;51.356;12.458;2023-01-26T08:17:48;17.23;;;6.93;;
65033;SDS011;51601;51.356;12.458;2023-01-26T08:22:35;19.08;;;6.32;;
65033;SDS011;51601;51.356;12.458;2023-01-26T08:27:19;19.35;;;7.22;;
65033;SDS011;51601;51.356;12.458;2023-01-26T08:32:06;17.07;;;6.90;;
65033;SDS011;51601;51.356;12.458;2023-01-26T08:36:51;19.23;;;6.93;;
65033;SDS011;51601;51.356;12.458;2023-01-26T08:41:35;17.95;;;6.80;;
65033;SDS011;51601;51.356;12.458;2023-01-26T08:46:21;17.40;;;7.00;;
65033;SDS011;51601;51.356;12.458;2023-01-26T08:51:07;18.47;;;7.23;;
65033;SDS011;51601;51.356;12.458;2023-01-26T08:55:51;18.65;;;7.47;;
65033;SDS011;51601;51.356;12.458;2023-01-26T09:00:35;18.08;;;7.45;;
65033;SDS011;51601;51.356;12.458;2023-01-26T09:05:19;20.77;;;7.80;;
65033;SDS011;51601;51.356;12.458;2023-01-26T09:10:06;22.20;;;9.07;;
65033;SDS011;51601;51.356;12.458;2023-01-26T09:14:52;21.25;;;8.38;;
65033;SDS011;51601;51.356;12.458;2023-01-26T09:19:36;18.50;;;7.40;;
65033;SDS011;51601;51.356;12.458;2023-01-26T09:24:20;20.13;;;7.93;;
65033;SDS011;51601;51.356;12.458;2023-01-26T09:29:08;22.35;;;8.85;;
65033;SDS011;51601;51.356;12.458;2023-01-26T09:33:52;22.13;;;8.25;;
65033;SDS011;51601;51.356;12.458;2023-01-26T09:38:37;21.40;;;8.23;;
65033;SDS011;51601;51.356;12.458;2023-01-26T09:43:24;20.25;;;8.00;;
65033;SDS011;51601;51.356;12.458;2023-01-26T09:48:21;21.90;;;8.77;;
65033;SDS011;51601;51.356;12.458;2023-01-26T09:53:15;18.80;;;7.77;;
65033;SDS011;51601;51.356;12.458;2023-01-26T09:58:03;19.52;;;7.43;;
65033;SDS011;51601;51.356;12.458;2023-01-26T10:02:52;20.92;;;7.72;;
65033;SDS011;51601;51.356;12.458;2023-01-26T10:07:47;22.33;;;7.80;;
65033;SDS011;51601;51.356;12.458;2023-01-26T10:12:33;17.35;;;6.22;;
65033;SDS011;51601;51.356;12.458;2023-01-26T10:17:20;21.83;;;7.88;;
65033;SDS011;51601;51.356;12.458;2023-01-26T10:22:13;16.98;;;6.20;;
65033;SDS011;51601;51.356;12.458;2023-01-26T10:27:04;16.07;;;6.70;;
65033;SDS011;51601;51.356;12.458;2023-01-26T10:31:53;21.45;;;7.03;;
65033;SDS011;51601;51.356;12.458;2023-01-26T10:36:38;17.58;;;6.22;;
65033;SDS011;51601;51.356;12.458;2023-01-26T10:41:27;18.57;;;6.50;;
65033;SDS011;51601;51.356;12.458;2023-01-26T10:46:22;14.57;;;5.47;;
65033;SDS011;51601;51.356;12.458;2023-01-26T10:51:13;14.48;;;4.90;;
65033;SDS011;51601;51.356;12.458;2023-01-26T10:55:59;13.87;;;5.90;;
65033;SDS011;51601;51.356;12.458;2023-01-26T11:00:45;15.48;;;5.97;;
65033;SDS011;51601;51.356;12.458;2023-01-26T11:05:39;21.42;;;8.70;;
65033;SDS011;51601;51.356;12.458;2023-01-26T11:10:26;15.98;;;5.32;;
65033;SDS011;51601;51.356;12.458;2023-01-26T11:15:16;13.37;;;4.90;;
65033;SDS011;51601;51.356;12.458;2023-01-26T11:20:07;13.65;;;5.22;;
65033;SDS011;51601;51.356;12.458;2023-01-26T11:25:14;16.77;;;5.97;;
65033;SDS011;51601;51.356;12.458;2023-01-26T11:35:21;18.50;;;6.43;;
65033;SDS011;51601;51.356;12.458;2023-01-26T11:45:20;16.93;;;6.63;;
65033;SDS011;51601;51.356;12.458;2023-01-26T11:50:21;19.08;;;6.78;;
65033;SDS011;51601;51.356;12.458;2023-01-26T11:55:35;22.63;;;7.60;;
65033;SDS011;51601;51.356;12.458;2023-01-26T12:00:33;25.92;;;7.95;;
65033;SDS011;51601;51.356;12.458;2023-01-26T12:05:22;27.40;;;9.00;;
65033;SDS011;51601;51.356;12.458;2023-01-26T12:10:11;29.42;;;9.93;;
65033;SDS011;51601;51.356;12.458;2023-01-26T12:14:59;31.23;;;10.65;;
65033;SDS011;51601;51.356;12.458;2023-01-26T12:19:49;32.83;;;9.97;;
65033;SDS011;51601;51.356;12.458;2023-01-26T12:24:47;30.55;;;9.75;;
65033;SDS011;51601;51.356;12.458;2023-01-26T12:30:00;33.58;;;11.05;;
65033;SDS011;51601;51.356;12.458;2023-01-26T12:34:48;29.93;;;10.80;;
65033;SDS011;51601;51.356;12.458;2023-01-26T12:39:33;29.48;;;10.50;;
65033;SDS011;51601;51.356;12.458;2023-01-26T12:44:24;34.60;;;11.60;;
65033;SDS011;51601;51.356;12.458;2023-01-26T12:49:16;32.40;;;10.63;;
65033;SDS011;51601;51.356;12.458;2023-01-26T12:54:05;34.63;;;11.17;;
65033;SDS011;51601;51.356;12.458;2023-01-26T12:58:57;37.67;;;12.32;;
65033;SDS011;51601;51.356;12.458;2023-01-26T13:03:51;29.40;;;11.07;;
65033;SDS011;51601;51.356;12.458;2023-01-26T13:08:46;31.53;;;11.23;;
65033;SDS011;51601;51.356;12.458;2023-01-26T13:18:46;33.30;;;11.77;;
65033;SDS011;51601;51.356;12.458;2023-01-26T13:28:32;28.15;;;10.40;;
65033;SDS011;51601;51.356;12.458;2023-01-26T13:33:18;32.53;;;10.52;;
65033;SDS011;51601;51.356;12.458;2023-01-26T13:38:23;32.90;;;10.52;;
65033;SDS011;51601;51.356;12.458;2023-01-26T13:43:16;31.47;;;10.17;;
65033;SDS011;51601;51.356;12.458;2023-01-26T13:48:12;30.70;;;10.13;;
65033;SDS011;51601;51.356;12.458;2023-01-26T13:52:58;40.92;;;13.02;;
65033;SDS011;51601;51.356;12.458;2023-01-26T13:57:43;40.97;;;13.77;;
65033;SDS011;51601;51.356;12.458;2023-01-26T14:02:32;45.63;;;13.30;;
65033;SDS011;51601;51.356;12.458;2023-01-26T14:07:22;39.10;;;12.50;;
65033;SDS011;51601;51.356;12.458;2023-01-26T14:12:12;39.30;;;13.27;;
65033;SDS011;51601;51.356;12.458;2023-01-26T14:17:05;34.13;;;11.77;;
65033;SDS011;51601;51.356;12.458;2023-01-26T14:21:53;39.70;;;12.65;;
65033;SDS011;51601;51.356;12.458;2023-01-26T14:26:38;38.17;;;12.65;;
65033;SDS011;51601;51.356;12.458;2023-01-26T14:31:24;36.83;;;11.67;;
65033;SDS011;51601;51.356;12.458;2023-01-26T14:36:13;39.30;;;11.80;;
65033;SDS011;51601;51.356;12.458;2023-01-26T14:41:00;39.78;;;11.73;;
65033;SDS011;51601;51.356;12.458;2023-01-26T14:45:47;35.17;;;11.73;;
65033;SDS011;51601;51.356;12.458;2023-01-26T14:50:34;32.90;;;10.65;;
65033;SDS011;51601;51.356;12.458;2023-01-26T14:55:21;35.58;;;11.02;;
65033;SDS011;51601;51.356;12.458;2023-01-26T15:00:19;27.27;;;9.90;;
65033;SDS011;51601;51.356;12.458;2023-01-26T15:05:10;31.00;;;10.88;;
65033;SDS011;51601;51.356;12.458;2023-01-26T15:09:58;30.83;;;10.57;;
65033;SDS011;51601;51.356;12.458;2023-01-26T15:14:47;31.58;;;10.98;;
65033;SDS011;51601;51.356;12.458;2023-01-26T15:19:43;31.97;;;11.23;;
65033;SDS011;51601;51.356;12.458;2023-01-26T15:24:33;25.20;;;8.70;;
65033;SDS011;51601;51.356;12.458;2023-01-26T15:29:20;29.55;;;9.95;;
65033;SDS011;51601;51.356;12.458;2023-01-26T15:39:18;28.52;;;10.02;;
65033;SDS011;51601;51.356;12.458;2023-01-26T15:44:03;31.70;;;11.00;;
65033;SDS011;51601;51.356;12.458;2023-01-26T15:48:48;30.57;;;10.13;;
65033;SDS011;51601;51.356;12.458;2023-01-26T15:53:34;27.30;;;10.07;;
65033;SDS011;51601;51.356;12.458;2023-01-26T15:58:38;29.08;;;10.77;;
65033;SDS011;51601;51.356;12.458;2023-01-26T16:03:25;26.80;;;10.00;;
65033;SDS011;51601;51.356;12.458;2023-01-26T16:08:10;27.13;;;9.50;;
65033;SDS011;51601;51.356;12.458;2023-01-26T16:13:01;26.08;;;9.30;;
65033;SDS011;51601;51.356;12.458;2023-01-26T16:17:54;24.27;;;9.38;;
65033;SDS011;51601;51.356;12.458;2023-01-26T16:22:44;25.03;;;9.47;;
65033;SDS011;51601;51.356;12.458;2023-01-26T16:27:34;22.90;;;8.85;;
65033;SDS011;51601;51.356;12.458;2023-01-26T16:32:28;22.67;;;8.43;;
65033;SDS011;51601;51.356;12.458;2023-01-26T16:37:17;24.47;;;8.97;;
65033;SDS011;51601;51.356;12.458;2023-01-26T16:42:03;26.73;;;8.73;;
65033;SDS011;51601;51.356;12.458;2023-01-26T16:46:47;25.60;;;9.52;;
65033;SDS011;51601;51.356;12.458;2023-01-26T16:51:38;24.02;;;9.20;;
65033;SDS011;51601;51.356;12.458;2023-01-26T16:56:25;24.50;;;9.40;;
65033;SDS011;51601;51.356;12.458;2023-01-26T17:01:17;27.58;;;10.02;;
65033;SDS011;51601;51.356;12.458;2023-01-26T17:06:03;21.73;;;8.85;;
65033;SDS011;51601;51.356;12.458;2023-01-26T17:10:47;28.53;;;9.30;;
65033;SDS011;51601;51.356;12.458;2023-01-26T17:15:44;26.52;;;9.75;;
65033;SDS011;51601;51.356;12.458;2023-01-26T17:20:29;25.63;;;9.95;;
65033;SDS011;51601;51.356;12.458;2023-01-26T17:25:16;23.63;;;8.30;;
65033;SDS011;51601;51.356;12.458;2023-01-26T17:30:01;21.77;;;7.85;;
65033;SDS011;51601;51.356;12.458;2023-01-26T17:34:47;27.05;;;8.73;;
65033;SDS011;51601;51.356;12.458;2023-01-26T17:39:32;22.92;;;8.75;;
65033;SDS011;51601;51.356;12.458;2023-01-26T17:44:16;22.80;;;8.87;;
65033;SDS011;51601;51.356;12.458;2023-01-26T17:49:00;38.50;;;12.98;;
65033;SDS011;51601;51.356;12.458;2023-01-26T17:53:47;26.70;;;10.25;;
65033;SDS011;51601;51.356;12.458;2023-01-26T17:58:32;27.03;;;10.53;;
65033;SDS011;51601;51.356;12.458;2023-01-26T18:03:16;30.50;;;10.20;;
65033;SDS011;51601;51.356;12.458;2023-01-26T18:08:02;33.05;;;10.55;;
65033;SDS011;51601;51.356;12.458;2023-01-26T18:12:52;27.23;;;9.70;;
65033;SDS011;51601;51.356;12.458;2023-01-26T18:17:36;27.35;;;9.77;;
65033;SDS011;51601;51.356;12.458;2023-01-26T18:22:24;28.42;;;10.13;;
65033;SDS011;51601;51.356;12.458;2023-01-26T18:27:17;29.77;;;10.80;;
65033;SDS011;51601;51.356;12.458;2023-01-26T18:32:03;29.00;;;9.77;;
65033;SDS011;51601;51.356;12.458;2023-01-26T18:37:02;31.35;;;10.20;;
65033;SDS011;51601;51.356;12.458;2023-01-26T18:41:52;28.60;;;8.73;;
65033;SDS011;51601;51.356;12.458;2023-01-26T18:46:36;30.60;;;9.40;;
65033;SDS011;51601;51.356;12.458;2023-01-26T18:51:31;21.63;;;7.47;;
65033;SDS011;51601;51.356;12.458;2023-01-26T18:56:16;21.13;;;6.75;;
65033;SDS011;51601;51.356;12.458;2023-01-26T19:01:14;20.13;;;6.70;;
65033;SDS011;51601;51.356;12.458;2023-01-26T19:06:00;20.13;;;7.03;;
65033;SDS011;51601;51.356;12.458;2023-01-26T19:10:53;19.50;;;6.90;;
65033;SDS011;51601;51.356;12.458;2023-01-26T19:15:39;23.38;;;8.57;;
65033;SDS011;51601;51.356;12.458;2023-01-26T19:20:31;22.47;;;8.67;;
65033;SDS011;51601;51.356;12.458;2023-01-26T19:25:16;23.48;;;8.45;;
65033;SDS011;51601;51.356;12.458;2023-01-26T19:30:06;20.15;;;7.35;;
65033;SDS011;51601;51.356;12.458;2023-01-26T19:34:56;22.37;;;7.87;;
65033;SDS011;51601;51.356;12.458;2023-01-26T19:39:41;21.88;;;7.10;;
65033;SDS011;51601;51.356;12.458;2023-01-26T19:44:25;21.20;;;7.20;;
65033;SDS011;51601;51.356;12.458;2023-01-26T19:49:14;22.73;;;7.87;;
65033;SDS011;51601;51.356;12.458;2023-01-26T19:53:59;22.98;;;8.00;;
65033;SDS011;51601;51.356;12.458;2023-01-26T19:58:46;26.08;;;9.25;;
65033;SDS011;51601;51.356;12.458;2023-01-26T20:03:32;26.85;;;9.25;;
65033;SDS011;51601;51.356;12.458;2023-01-26T20:08:18;25.77;;;8.47;;
65033;SDS011;51601;51.356;12.458;2023-01-26T20:13:02;23.70;;;8.23;;
65033;SDS011;51601;51.356;12.458;2023-01-26T20:17:49;24.70;;;8.63;;
65033;SDS011;51601;51.356;12.458;2023-01-26T20:22:33;26.77;;;9.27;;
65033;SDS011;51601;51.356;12.458;2023-01-26T20:27:23;29.25;;;9.88;;
65033;SDS011;51601;51.356;12.458;2023-01-26T20:32:13;29.83;;;10.15;;
65033;SDS011;51601;51.356;12.458;2023-01-26T20:37:07;26.90;;;9.73;;
65033;SDS011;51601;51.356;12.458;2023-01-26T20:41:53;28.75;;;8.40;;
65033;SDS011;51601;51.356;12.458;2023-01-26T20:46:53;22.70;;;8.23;;
65033;SDS011;51601;51.356;12.458;2023-01-26T20:51:46;24.05;;;7.90;;
65033;SDS011;51601;51.356;12.458;2023-01-26T20:56:36;22.50;;;7.67;;
65033;SDS011;51601;51.356;12.458;2023-01-26T21:01:44;27.02;;;8.43;;
65033;SDS011;51601;51.356;12.458;2023-01-26T21:06:39;26.70;;;8.60;;
65033;SDS011;51601;51.356;12.458;2023-01-26T21:11:24;25.80;;;7.60;;
65033;SDS011;51601;51.356;12.458;2023-01-26T21:16:11;24.88;;;7.78;;
65033;SDS011;51601;51.356;12.458;2023-01-26T21:20:59;21.83;;;7.50;;
65033;SDS011;51601;51.356;12.458;2023-01-26T21:25:58;23.67;;;7.90;;
65033;SDS011;51601;51.356;12.458;2023-01-26T21:30:43;23.38;;;7.60;;
65033;SDS011;51601;51.356;12.458;2023-01-26T21:35:40;24.40;;;8.65;;
65033;SDS011;51601;51.356;12.458;2023-01-26T21:40:27;22.63;;;8.13;;
65033;SDS011;51601;51.356;12.458;2023-01-26T21:45:13;22.53;;;7.50;;
65033;SDS011;51601;51.356;12.458;2023-01-26T21:50:15;25.45;;;8.43;;
65033;SDS011;51601;51.356;12.458;2023-01-26T21:55:19;24.00;;;7.90;;
65033;SDS011;51601;51.356;12.458;2023-01-26T22:00:04;23.27;;;8.07;;
65033;SDS011;51601;51.356;12.458;2023-01-26T22:04:51;24.05;;;8.45;;
65033;SDS011;51601;51.356;12.458;2023-01-26T22:09:35;24.10;;;7.80;;
65033;SDS011;51601;51.356;12.458;2023-01-26T22:14:17;22.40;;;7.40;;
65033;SDS011;51601;51.356;12.458;2023-01-26T22:19:07;27.08;;;8.43;;
65033;SDS011;51601;51.356;12.458;2023-01-26T22:24:12;24.15;;;8.55;;
65033;SDS011;51601;51.356;12.458;2023-01-26T22:29:09;28.10;;;9.20;;
65033;SDS011;51601;51.356;12.458;2023-01-26T22:34:05;25.57;;;8.17;;
65033;SDS011;51601;51.356;12.458;2023-01-26T22:38:55;24.05;;;8.98;;
65033;SDS011;51601;51.356;12.458;2023-01-26T22:43:48;27.30;;;8.50;;
65033;SDS011;51601;51.356;12.458;2023-01-26T22:48:44;27.70;;;9.20;;
65033;SDS011;51601;51.356;12.458;2023-01-26T22:53:33;25.25;;;8.88;;
65033;SDS011;51601;51.356;12.458;2023-01-26T22:58:25;24.48;;;7.95;;
65033;SDS011;51601;51.356;12.458;2023-01-26T23:03:39;29.57;;;9.30;;
65033;SDS011;51601;51.356;12.458;2023-01-26T23:08:35;26.10;;;8.27;;
65033;SDS011;51601;51.356;12.458;2023-01-26T23:13:19;31.90;;;8.82;;
65033;SDS011;51601;51.356;12.458;2023-01-26T23:18:06;28.05;;;8.95;;
65033;SDS011;51601;51.356;12.458;2023-01-26T23:23:04;27.57;;;7.70;;
65033;SDS011;51601;51.356;12.458;2023-01-26T23:27:54;26.75;;;7.68;;
65033;SDS011;51601;51.356;12.458;2023-01-26T23:32:40;26.10;;;8.18;;
65033;SDS011;51601;51.356;12.458;2023-01-26T23:37:30;30.73;;;8.70;;
65033;SDS011;51601;51.356;12.458;2023-01-26T23:42:17;29.42;;;8.18;;
65033;SDS011;51601;51.356;12.458;2023-01-26T23:47:00;26.67;;;7.97;;
65033;SDS011;51601;51.356;12.458;2023-01-26T23:51:50;28.13;;;8.23;;
65033;SDS011;51601;51.356;12.458;2023-01-26T23:56:33;24.27;;;7.68;;
